createdAt,value
2018-07-24T00:00:22.741Z,5.97
2018-07-24T00:02:50.404Z,5.30
2018-07-24T00:05:18.130Z,7.07
2018-07-24T00:07:45.848Z,6.07
2018-07-24T00:10:13.574Z,4.20
2018-07-24T00:12:41.276Z,4.93
2018-07-24T00:15:09.024Z,5.83
2018-07-24T00:17:36.702Z,7.00
2018-07-24T00:20:05.592Z,5.33
2018-07-24T00:22:33.320Z,3.87
2018-07-24T00:25:01.012Z,4.73
2018-07-24T00:27:28.676Z,4.20
2018-07-24T00:29:56.393Z,5.17
2018-07-24T00:32:24.159Z,5.47
2018-07-24T00:34:51.852Z,4.83
2018-07-24T00:37:19.563Z,6.57
2018-07-24T00:39:47.204Z,5.57
2018-07-24T00:42:14.885Z,10.43
2018-07-24T00:44:49.279Z,8.40
2018-07-24T00:47:16.921Z,8.43
2018-07-24T00:49:44.727Z,9.80
2018-07-24T00:52:12.488Z,8.73
2018-07-24T00:54:40.138Z,9.20
2018-07-24T00:57:08.188Z,5.43
2018-07-24T00:59:35.936Z,6.13
2018-07-24T01:02:03.589Z,4.70
2018-07-24T01:04:31.214Z,4.67
2018-07-24T01:06:58.931Z,6.00
2018-07-24T01:09:26.564Z,6.37
2018-07-24T01:11:54.199Z,7.00
2018-07-24T01:14:21.953Z,6.73
2018-07-24T01:16:49.597Z,7.37
2018-07-24T01:19:17.281Z,7.83
2018-07-24T01:21:44.983Z,7.70
2018-07-24T01:24:12.668Z,4.27
2018-07-24T01:26:40.300Z,5.27
2018-07-24T01:29:07.978Z,7.40
2018-07-24T01:31:35.615Z,6.47
2018-07-24T01:34:03.300Z,6.83
2018-07-24T01:36:30.967Z,4.87
2018-07-24T01:38:58.732Z,5.87
2018-07-24T01:41:26.408Z,3.80
2018-07-24T01:43:54.039Z,7.53
2018-07-24T01:46:21.715Z,4.53
2018-07-24T01:48:49.428Z,5.77
2018-07-24T01:51:17.180Z,6.43
2018-07-24T01:53:44.835Z,4.23
2018-07-24T01:56:12.485Z,5.97
2018-07-24T01:58:40.192Z,5.77
2018-07-24T02:01:07.878Z,4.37
2018-07-24T02:03:35.540Z,5.67
2018-07-24T02:06:03.971Z,5.20
2018-07-24T02:08:32.119Z,5.60
2018-07-24T02:10:59.768Z,5.03
2018-07-24T02:13:27.507Z,5.70
2018-07-24T02:15:55.164Z,4.80
2018-07-24T02:18:22.857Z,4.77
2018-07-24T02:20:50.515Z,6.40
2018-07-24T02:23:18.240Z,5.30
2018-07-24T02:25:45.935Z,4.77
2018-07-24T02:28:13.628Z,4.77
2018-07-24T02:30:41.341Z,4.67
2018-07-24T02:33:08.990Z,6.23
2018-07-24T02:35:36.853Z,6.77
2018-07-24T02:38:04.537Z,7.43
2018-07-24T02:40:32.182Z,7.27
2018-07-24T02:42:59.835Z,7.07
2018-07-24T02:45:27.495Z,6.33
2018-07-24T02:47:55.197Z,5.73
2018-07-24T02:50:22.903Z,5.90
2018-07-24T02:52:50.487Z,6.67
2018-07-24T02:55:18.204Z,5.60
2018-07-24T02:57:45.880Z,7.03
2018-07-24T03:00:13.696Z,7.23
2018-07-24T03:02:41.396Z,8.63
2018-07-24T03:05:09.148Z,6.83
2018-07-24T03:07:36.840Z,10.23
2018-07-24T03:10:04.881Z,9.77
2018-07-24T03:12:32.547Z,9.03
2018-07-24T03:15:00.245Z,8.37
2018-07-24T03:17:27.923Z,8.77
2018-07-24T03:19:55.574Z,8.93
2018-07-24T03:22:23.256Z,8.20
2018-07-24T03:24:50.923Z,8.07
2018-07-24T03:27:18.621Z,7.70
2018-07-24T03:29:46.305Z,7.53
2018-07-24T03:32:13.982Z,6.50
2018-07-24T03:34:41.624Z,8.17
2018-07-24T03:37:09.390Z,7.07
2018-07-24T03:39:37.075Z,9.03
2018-07-24T03:42:04.779Z,6.43
2018-07-24T03:44:32.452Z,6.77
2018-07-24T03:47:00.133Z,8.50
2018-07-24T03:49:27.732Z,6.90
2018-07-24T03:51:55.332Z,7.27
2018-07-24T03:54:23.030Z,8.23
2018-07-24T03:56:50.702Z,6.67
2018-07-24T03:59:18.394Z,9.23
2018-07-24T04:01:46.131Z,8.40
2018-07-24T04:04:13.829Z,8.63
2018-07-24T04:06:41.546Z,5.93
2018-07-24T04:09:10.046Z,6.83
2018-07-24T04:11:37.955Z,9.70
2018-07-24T04:14:05.640Z,8.47
2018-07-24T04:16:33.323Z,7.10
2018-07-24T04:19:01.168Z,7.40
2018-07-24T04:21:28.832Z,6.53
2018-07-24T04:23:56.544Z,9.80
2018-07-24T04:26:24.266Z,5.93
2018-07-24T04:28:51.985Z,5.23
2018-07-24T04:31:19.733Z,7.13
2018-07-24T04:33:47.329Z,5.47
2018-07-24T04:36:15.031Z,5.80
2018-07-24T04:38:42.668Z,6.83
2018-07-24T04:41:10.400Z,4.80
2018-07-24T04:43:38.084Z,5.57
2018-07-24T04:46:05.878Z,5.43
2018-07-24T04:48:33.679Z,4.50
2018-07-24T04:51:01.349Z,4.57
2018-07-24T04:53:29.046Z,8.07
2018-07-24T04:55:56.786Z,7.47
2018-07-24T04:58:24.496Z,6.40
2018-07-24T05:00:52.272Z,7.20
2018-07-24T05:03:20.020Z,4.17
2018-07-24T05:05:47.727Z,4.60
2018-07-24T05:08:15.415Z,5.20
2018-07-24T05:10:43.076Z,4.23
2018-07-24T05:13:10.797Z,5.60
2018-07-24T05:15:38.513Z,3.93
2018-07-24T05:18:06.207Z,5.40
2018-07-24T05:20:33.901Z,9.03
2018-07-24T05:23:01.568Z,3.63
2018-07-24T05:25:29.242Z,7.15
2018-07-24T05:27:56.896Z,5.00
2018-07-24T05:32:58.923Z,5.97
2018-07-24T05:35:26.629Z,4.53
2018-07-24T05:37:54.261Z,3.95
2018-07-24T05:40:21.908Z,4.60
2018-07-24T05:42:49.626Z,3.55
2018-07-24T05:45:17.412Z,4.00
2018-07-24T05:47:45.117Z,3.47
2018-07-24T05:50:12.766Z,3.00
2018-07-24T05:52:47.059Z,4.12
2018-07-24T05:55:14.819Z,4.92
2018-07-24T05:57:42.504Z,4.90
2018-07-24T06:00:10.275Z,5.10
2018-07-24T06:02:38.176Z,3.40
2018-07-24T06:05:06.036Z,7.12
2018-07-24T06:07:33.758Z,4.35
2018-07-24T06:10:01.503Z,4.15
2018-07-24T06:12:29.245Z,4.05
2018-07-24T06:14:56.992Z,7.35
2018-07-24T06:17:24.737Z,6.55
2018-07-24T06:19:52.402Z,3.05
2018-07-24T06:22:20.105Z,5.67
2018-07-24T06:24:47.809Z,3.42
2018-07-24T06:27:15.491Z,5.53
2018-07-24T06:29:43.332Z,5.17
2018-07-24T06:32:11.147Z,7.25
2018-07-24T06:34:38.839Z,5.22
2018-07-24T06:37:06.634Z,3.92
2018-07-24T06:39:34.403Z,4.67
2018-07-24T06:42:02.094Z,3.90
2018-07-24T06:44:29.894Z,4.30
2018-07-24T06:46:57.644Z,3.55
2018-07-24T06:49:25.361Z,3.87
2018-07-24T06:51:53.219Z,4.05
2018-07-24T06:54:20.923Z,3.50
2018-07-24T06:56:48.614Z,3.25
2018-07-24T06:59:16.429Z,4.03
2018-07-24T07:01:44.166Z,3.80
2018-07-24T07:04:11.824Z,4.78
2018-07-24T07:06:39.532Z,4.03
2018-07-24T07:09:07.997Z,3.83
2018-07-24T07:11:35.756Z,4.12
2018-07-24T07:14:04.370Z,4.22
2018-07-24T07:16:32.136Z,4.92
2018-07-24T07:18:59.872Z,4.10
2018-07-24T07:21:27.599Z,2.90
2018-07-24T07:23:55.276Z,4.15
2018-07-24T07:26:23.557Z,3.47
2018-07-24T07:28:51.279Z,3.08
2018-07-24T07:31:19.685Z,3.45
2018-07-24T07:33:47.429Z,3.35
2018-07-24T07:36:15.255Z,3.90
2018-07-24T07:38:42.938Z,3.45
2018-07-24T07:41:10.578Z,4.20
2018-07-24T07:43:38.293Z,3.47
2018-07-24T07:46:06.089Z,4.75
2018-07-24T07:48:33.827Z,4.00
2018-07-24T07:51:01.530Z,3.67
2018-07-24T07:53:29.267Z,5.15
2018-07-24T07:55:57.731Z,3.77
2018-07-24T07:58:25.426Z,3.75
2018-07-24T08:00:53.217Z,2.90
2018-07-24T08:03:21.002Z,4.28
2018-07-24T08:05:48.693Z,5.03
2018-07-24T08:08:16.415Z,3.83
2018-07-24T08:10:44.970Z,3.30
2018-07-24T08:13:12.641Z,3.15
2018-07-24T08:15:40.428Z,4.83
2018-07-24T08:18:08.183Z,4.17
2018-07-24T08:20:35.926Z,3.52
2018-07-24T08:23:03.600Z,3.37
2018-07-24T08:25:31.313Z,3.87
2018-07-24T08:27:59.177Z,3.98
2018-07-24T08:30:27.017Z,3.35
2018-07-24T08:32:54.977Z,5.10
2018-07-24T08:35:22.805Z,3.60
2018-07-24T08:37:50.497Z,3.40
2018-07-24T08:40:18.193Z,2.98
2018-07-24T08:42:45.887Z,3.77
2018-07-24T08:45:13.647Z,2.75
2018-07-24T08:47:41.325Z,2.90
2018-07-24T08:50:09.066Z,4.67
2018-07-24T08:52:37.519Z,3.87
2018-07-24T08:55:06.337Z,2.77
2018-07-24T08:57:33.672Z,3.37
2018-07-24T09:00:01.291Z,3.20
2018-07-24T09:02:29.069Z,2.95
2018-07-24T09:04:56.789Z,3.92
2018-07-24T09:07:24.447Z,4.75
2018-07-24T09:09:52.143Z,3.22
2018-07-24T09:12:19.861Z,7.05
2018-07-24T09:14:47.560Z,2.92
2018-07-24T09:17:15.256Z,3.42
2018-07-24T09:19:43.036Z,4.80
2018-07-24T09:22:10.849Z,3.47
2018-07-24T09:24:38.588Z,4.12
2018-07-24T09:27:06.301Z,4.00
2018-07-24T09:29:34.092Z,5.08
2018-07-24T09:32:01.784Z,4.47
2018-07-24T09:34:29.458Z,3.70
2018-07-24T09:36:57.252Z,4.37
2018-07-24T09:39:24.977Z,2.72
2018-07-24T09:41:52.992Z,3.72
2018-07-24T09:44:20.705Z,3.17
2018-07-24T09:46:48.367Z,2.98
2018-07-24T09:49:16.905Z,3.25
2018-07-24T09:51:44.579Z,3.58
2018-07-24T09:54:12.322Z,4.00
2018-07-24T09:56:39.974Z,3.60
2018-07-24T09:59:07.664Z,3.47
2018-07-24T10:01:35.476Z,4.55
2018-07-24T10:04:03.937Z,2.60
2018-07-24T10:06:32.767Z,3.27
2018-07-24T10:09:00.400Z,3.12
2018-07-24T10:11:28.183Z,4.40
2018-07-24T10:13:56.008Z,4.05
2018-07-24T10:16:23.805Z,3.12
2018-07-24T10:18:51.588Z,5.35
2018-07-24T10:21:19.262Z,3.00
2018-07-24T10:23:46.980Z,2.98
2018-07-24T10:26:14.673Z,4.45
2018-07-24T10:28:42.365Z,3.58
2018-07-24T10:31:10.115Z,4.25
2018-07-24T10:33:37.759Z,4.33
2018-07-24T10:36:05.506Z,2.98
2018-07-24T10:38:33.153Z,3.77
2018-07-24T10:41:00.832Z,3.83
2018-07-24T10:43:28.488Z,3.27
2018-07-24T10:45:56.209Z,3.47
2018-07-24T10:48:23.915Z,3.55
2018-07-24T10:50:51.649Z,5.08
2018-07-24T10:53:19.856Z,4.40
2018-07-24T10:55:47.537Z,4.00
2018-07-24T10:58:15.281Z,4.65
2018-07-24T11:00:42.968Z,4.12
2018-07-24T11:03:10.648Z,3.87
2018-07-24T11:05:38.485Z,4.65
2018-07-24T11:08:06.698Z,4.00
2018-07-24T11:10:34.353Z,5.40
2018-07-24T11:13:02.092Z,4.50
2018-07-24T11:15:29.847Z,3.55
2018-07-24T11:17:57.564Z,3.60
2018-07-24T11:20:25.328Z,4.10
2018-07-24T11:22:53.257Z,3.20
2018-07-24T11:25:20.702Z,3.20
2018-07-24T11:27:48.422Z,5.17
2018-07-24T11:30:16.112Z,6.75
2018-07-24T11:32:43.885Z,5.17
2018-07-24T11:35:11.894Z,3.95
2018-07-24T11:37:41.571Z,4.25
2018-07-24T11:40:11.697Z,4.60
2018-07-24T11:42:39.563Z,4.62
2018-07-24T11:45:07.425Z,3.00
2018-07-24T11:47:35.164Z,3.17
2018-07-24T11:50:02.923Z,6.50
2018-07-24T11:52:30.644Z,4.72
2018-07-24T11:54:58.390Z,5.83
2018-07-24T11:57:26.096Z,4.22
2018-07-24T11:59:53.773Z,3.42
2018-07-24T12:02:21.486Z,5.03
2018-07-24T12:04:49.144Z,2.98
2018-07-24T12:07:16.857Z,3.22
2018-07-24T12:09:44.548Z,3.40
2018-07-24T12:12:12.237Z,4.05
2018-07-24T12:14:39.930Z,4.17
2018-07-24T12:17:07.648Z,3.08
2018-07-24T12:19:35.307Z,3.22
2018-07-24T12:22:03.008Z,6.60
2018-07-24T12:24:30.705Z,2.37
2018-07-24T12:26:58.448Z,3.65
2018-07-24T12:29:26.187Z,2.72
2018-07-24T12:31:53.905Z,4.67
2018-07-24T12:34:21.587Z,4.50
2018-07-24T12:36:49.263Z,5.65
2018-07-24T12:39:16.988Z,4.42
2018-07-24T12:41:44.724Z,4.62
2018-07-24T12:44:12.385Z,3.62
2018-07-24T12:46:40.107Z,3.27
2018-07-24T12:49:07.874Z,3.77
2018-07-24T12:51:35.544Z,2.75
2018-07-24T12:54:03.305Z,2.50
2018-07-24T12:56:31.023Z,5.12
2018-07-24T12:58:58.748Z,3.05
2018-07-24T13:01:26.503Z,3.08
2018-07-24T13:03:54.239Z,3.35
2018-07-24T13:06:22.009Z,4.25
2018-07-24T13:08:49.748Z,2.60
2018-07-24T13:11:17.489Z,5.40
2018-07-24T13:13:45.212Z,3.12
2018-07-24T13:16:12.892Z,4.25
2018-07-24T13:18:40.576Z,3.40
2018-07-24T13:21:08.299Z,2.85
2018-07-24T13:23:36.007Z,3.20
2018-07-24T13:26:03.782Z,3.65
2018-07-24T13:28:31.548Z,4.67
2018-07-24T13:30:59.329Z,3.55
2018-07-24T13:33:27.093Z,2.90
2018-07-24T13:35:54.939Z,3.50
2018-07-24T13:38:22.655Z,5.97
2018-07-24T13:40:50.352Z,4.30
2018-07-24T13:43:18.136Z,5.10
2018-07-24T13:45:45.789Z,3.62
2018-07-24T13:48:13.503Z,3.37
2018-07-24T13:50:41.209Z,4.42
2018-07-24T13:53:08.866Z,3.62
2018-07-24T13:55:36.531Z,3.55
2018-07-24T13:58:04.366Z,4.00
2018-07-24T14:00:32.043Z,5.75
2018-07-24T14:02:59.749Z,7.12
2018-07-24T14:05:27.476Z,4.00
2018-07-24T14:07:55.175Z,3.80
2018-07-24T14:10:22.859Z,4.22
2018-07-24T14:12:50.636Z,3.83
2018-07-24T14:15:18.334Z,4.72
2018-07-24T14:17:46.025Z,4.67
2018-07-24T14:20:13.784Z,4.75
2018-07-24T14:22:41.478Z,4.17
2018-07-24T14:25:09.382Z,5.45
2018-07-24T14:27:37.130Z,4.12
2018-07-24T14:30:05.231Z,6.20
2018-07-24T14:32:32.910Z,4.65
2018-07-24T14:35:00.638Z,6.30
2018-07-24T14:37:28.376Z,4.42
2018-07-24T14:39:56.204Z,6.17
2018-07-24T14:42:24.129Z,4.33
2018-07-24T14:44:51.878Z,3.90
2018-07-24T14:47:19.599Z,5.33
2018-07-24T14:49:47.349Z,4.83
2018-07-24T14:52:15.094Z,5.58
2018-07-24T14:54:42.837Z,5.17
2018-07-24T14:57:10.643Z,5.90
2018-07-24T14:59:38.342Z,6.55
2018-07-24T15:02:06.179Z,4.05
2018-07-24T15:04:33.921Z,4.50
2018-07-24T15:07:01.663Z,4.45
2018-07-24T15:09:29.525Z,3.85
2018-07-24T15:11:57.730Z,4.47
2018-07-24T15:14:25.487Z,3.95
2018-07-24T15:16:53.232Z,5.25
2018-07-24T15:19:20.908Z,4.22
2018-07-24T15:21:48.590Z,3.65
2018-07-24T15:24:16.453Z,4.25
2018-07-24T15:26:44.162Z,5.08
2018-07-24T15:29:11.820Z,4.62
2018-07-24T15:31:39.540Z,4.30
2018-07-24T15:34:07.255Z,3.60
2018-07-24T15:36:35.069Z,4.55
2018-07-24T15:39:05.345Z,6.33
2018-07-24T15:41:33.063Z,5.97
2018-07-24T15:44:00.908Z,4.28
2018-07-24T15:46:28.563Z,3.90
2018-07-24T15:48:56.273Z,4.65
2018-07-24T15:51:24.220Z,6.03
2018-07-24T15:53:51.967Z,4.72
2018-07-24T15:56:19.678Z,5.25
2018-07-24T15:58:47.476Z,4.65
2018-07-24T16:01:15.182Z,4.58
2018-07-24T16:03:42.933Z,6.17
2018-07-24T16:06:10.641Z,4.53
2018-07-24T16:08:38.468Z,5.10
2018-07-24T16:11:06.190Z,5.10
2018-07-24T16:13:33.894Z,3.87
2018-07-24T16:16:01.649Z,5.00
2018-07-24T16:18:29.400Z,4.12
2018-07-24T16:20:57.120Z,3.80
2018-07-24T16:23:24.837Z,5.55
2018-07-24T16:25:52.534Z,9.25
2018-07-24T16:28:20.269Z,4.53
2018-07-24T16:30:48.019Z,3.35
2018-07-24T16:33:15.739Z,4.60
2018-07-24T16:35:43.499Z,3.67
2018-07-24T16:38:37.559Z,4.28
2018-07-24T16:41:05.287Z,3.25
2018-07-24T16:43:33.025Z,4.00
2018-07-24T16:46:01.209Z,4.08
2018-07-24T16:48:28.973Z,4.40
2018-07-24T16:50:56.758Z,4.17
2018-07-24T16:53:24.515Z,5.40
2018-07-24T16:55:52.216Z,4.97
2018-07-24T16:58:19.960Z,4.33
2018-07-24T17:00:47.656Z,3.42
2018-07-24T17:03:15.481Z,5.62
2018-07-24T17:05:43.253Z,3.67
2018-07-24T17:08:10.968Z,5.28
2018-07-24T17:10:38.678Z,4.70
2018-07-24T17:13:06.823Z,4.47
2018-07-24T17:15:34.555Z,4.63
2018-07-24T17:18:02.400Z,5.80
2018-07-24T17:20:30.156Z,4.35
2018-07-24T17:22:57.876Z,4.77
2018-07-24T17:25:25.601Z,3.67
2018-07-24T17:27:53.423Z,6.23
2018-07-24T17:30:21.160Z,6.80
2018-07-24T17:32:48.900Z,4.20
2018-07-24T17:35:16.688Z,5.93
2018-07-24T17:37:44.467Z,4.00
2018-07-24T17:40:12.224Z,3.93
2018-07-24T17:42:39.988Z,4.70
2018-07-24T17:45:08.055Z,4.00
2018-07-24T17:47:35.752Z,5.60
2018-07-24T17:50:03.569Z,3.73
2018-07-24T17:52:31.307Z,3.73
2018-07-24T17:54:59.007Z,3.97
2018-07-24T17:57:26.693Z,4.40
2018-07-24T17:59:54.448Z,3.83
2018-07-24T18:02:22.251Z,3.63
2018-07-24T18:04:50.197Z,4.77
2018-07-24T18:07:18.075Z,5.77
2018-07-24T18:09:46.837Z,5.47
2018-07-24T18:12:14.536Z,3.87
2018-07-24T18:14:42.311Z,5.07
2018-07-24T18:17:10.110Z,4.25
2018-07-24T18:19:37.828Z,6.00
2018-07-24T18:22:05.607Z,4.47
2018-07-24T18:24:33.307Z,4.97
2018-07-24T18:27:01.034Z,4.60
2018-07-24T18:29:28.748Z,3.60
2018-07-24T18:31:56.471Z,4.00
2018-07-24T18:34:24.190Z,5.77
2018-07-24T18:36:51.902Z,5.67
2018-07-24T18:39:19.606Z,6.30
2018-07-24T18:41:47.285Z,5.63
2018-07-24T18:44:15.008Z,3.37
2018-07-24T18:46:42.772Z,4.17
2018-07-24T18:49:10.573Z,4.50
2018-07-24T18:51:38.428Z,4.63
2018-07-24T18:54:06.231Z,5.60
2018-07-24T18:56:33.996Z,4.43
2018-07-24T18:59:01.862Z,5.20
2018-07-24T19:01:29.604Z,6.07
2018-07-24T19:03:57.335Z,4.40
2018-07-24T19:06:25.037Z,4.93
2018-07-24T19:08:52.760Z,4.57
2018-07-24T19:11:20.519Z,5.87
2018-07-24T19:13:48.172Z,5.00
2018-07-24T19:16:15.908Z,5.53
2018-07-24T19:18:43.636Z,4.77
2018-07-24T19:21:11.343Z,5.20
2018-07-24T19:23:39.025Z,4.80
2018-07-24T19:26:06.829Z,4.13
2018-07-24T19:28:34.550Z,5.57
2018-07-24T19:31:02.358Z,5.50
2018-07-24T19:33:30.182Z,5.83
2018-07-24T19:35:58.000Z,7.40
2018-07-24T19:38:25.717Z,6.60
2018-07-24T19:40:53.465Z,5.00
2018-07-24T19:43:21.227Z,6.97
2018-07-24T19:45:48.930Z,6.23
2018-07-24T19:48:16.648Z,5.07
2018-07-24T19:50:44.348Z,6.10
2018-07-24T19:53:12.047Z,7.20
2018-07-24T19:55:39.854Z,5.10
2018-07-24T19:58:07.531Z,5.67
2018-07-24T20:00:35.315Z,6.37
2018-07-24T20:03:03.127Z,6.03
2018-07-24T20:05:30.860Z,9.83
2018-07-24T20:07:58.628Z,6.33
2018-07-24T20:10:26.342Z,6.27
2018-07-24T20:12:54.357Z,5.60
2018-07-24T20:15:22.034Z,6.07
2018-07-24T20:17:49.797Z,5.93
2018-07-24T20:20:17.476Z,7.07
2018-07-24T20:22:45.888Z,6.00
2018-07-24T20:25:13.631Z,6.70
2018-07-24T20:27:41.309Z,6.07
2018-07-24T20:30:09.256Z,7.00
2018-07-24T20:32:36.916Z,5.90
2018-07-24T20:35:04.886Z,6.03
2018-07-24T20:37:32.676Z,7.47
2018-07-24T20:40:00.452Z,5.77
2018-07-24T20:42:28.150Z,10.57
2018-07-24T20:44:56.063Z,6.50
2018-07-24T20:47:23.860Z,5.13
2018-07-24T20:49:51.597Z,6.63
2018-07-24T20:52:19.349Z,9.53
2018-07-24T20:54:47.055Z,6.50
2018-07-24T20:57:14.832Z,6.20
2018-07-24T20:59:42.497Z,6.33
2018-07-24T21:02:10.368Z,7.67
2018-07-24T21:04:38.088Z,6.07
2018-07-24T21:07:05.769Z,6.47
2018-07-24T21:09:33.508Z,6.57
2018-07-24T21:12:01.261Z,6.43
2018-07-24T21:14:28.950Z,5.93
2018-07-24T21:16:56.645Z,6.20
2018-07-24T21:19:24.352Z,6.17
2018-07-24T21:21:52.458Z,7.70
2018-07-24T21:24:20.287Z,6.47
2018-07-24T21:26:47.970Z,10.93
2018-07-24T21:29:15.623Z,9.67
2018-07-24T21:31:43.297Z,13.17
2018-07-24T21:34:10.988Z,17.80
2018-07-24T21:36:38.624Z,8.57
2018-07-24T21:39:08.343Z,8.27
2018-07-24T21:41:35.998Z,6.93
2018-07-24T21:44:03.833Z,6.37
2018-07-24T21:46:31.490Z,8.27
2018-07-24T21:48:59.251Z,6.87
2018-07-24T21:51:26.967Z,7.83
2018-07-24T21:53:54.843Z,7.33
2018-07-24T21:56:22.529Z,8.23
2018-07-24T21:58:50.217Z,8.70
2018-07-24T22:01:18.409Z,7.43
2018-07-24T22:03:46.723Z,6.13
2018-07-24T22:06:14.381Z,6.80
2018-07-24T22:08:42.169Z,8.73
2018-07-24T22:11:09.884Z,8.07
2018-07-24T22:13:37.592Z,8.73
2018-07-24T22:16:05.334Z,6.60
2018-07-24T22:18:33.119Z,6.27
2018-07-24T22:21:00.817Z,9.30
2018-07-24T22:23:28.514Z,9.27
2018-07-24T22:25:56.175Z,7.80
2018-07-24T22:28:23.850Z,11.13
2018-07-24T22:30:51.636Z,8.20
2018-07-24T22:33:19.349Z,8.63
2018-07-24T22:35:47.049Z,7.67
2018-07-24T22:38:14.712Z,8.97
2018-07-24T22:40:42.375Z,6.20
2018-07-24T22:43:10.045Z,6.50
2018-07-24T22:45:37.737Z,6.33
2018-07-24T22:48:05.357Z,6.73
2018-07-24T22:50:33.085Z,9.20
2018-07-24T22:53:00.732Z,13.03
2018-07-24T22:55:28.401Z,5.90
2018-07-24T22:57:56.111Z,5.47
2018-07-24T23:00:23.928Z,5.97
2018-07-24T23:02:51.588Z,7.43
2018-07-24T23:05:19.314Z,8.40
2018-07-24T23:07:46.951Z,11.73
2018-07-24T23:10:14.608Z,11.00
2018-07-24T23:12:42.263Z,17.03
2018-07-24T23:15:09.932Z,6.97
2018-07-24T23:17:37.788Z,8.93
2018-07-24T23:20:05.521Z,8.00
2018-07-24T23:22:33.181Z,7.67
2018-07-24T23:25:00.913Z,7.30
2018-07-24T23:27:28.557Z,6.27
2018-07-24T23:29:56.194Z,5.33
2018-07-24T23:32:23.869Z,6.00
2018-07-24T23:34:51.536Z,5.70
2018-07-24T23:37:19.207Z,5.93
2018-07-24T23:39:46.891Z,8.57
2018-07-24T23:42:14.565Z,6.20
2018-07-24T23:44:42.181Z,8.57
2018-07-24T23:47:09.881Z,9.20
2018-07-24T23:49:37.571Z,8.37
2018-07-24T23:52:05.388Z,9.50
2018-07-24T23:54:33.025Z,11.80
2018-07-24T23:57:00.645Z,13.30
2018-07-24T23:59:28.324Z,10.07
